Time;durP1;ratioP1;P1;durP2;ratioP2;P2;SDS_P1;SDS_P2;PMS_P1;PMS_P2;Temp;Humidity;BMP_temperature;BMP_pressure;BME280_temperature;BME280_humidity;BME280_pressure;Samples;Min_cycle;Max_cycle;Signal;HPM_P1;HPM_P2
2023/02/21 02:16:01;;;;;;;;;;;8.10;99.90;;;;;;5009747;28;19918;-63
2023/02/21 02:18:26;;;;;;;;;;;8.00;99.90;;;;;;4938027;28;20304;-64
2023/02/21 02:21:13;;;;;;;;;;;8.00;99.90;;;;;;5006889;28;19913;-63
2023/02/21 02:23:57;;;;;;;;;;;8.00;99.90;;;;;;5005906;28;19913;-63
2023/02/21 02:26:41;;;;;;;;;;;8.00;99.90;;;;;;5009038;28;19971;-64
2023/02/21 02:29:18;;;;;;;;;;;8.00;99.90;;;;;;5007871;28;19920;-63
2023/02/21 02:31:49;;;;;;;;;;;8.00;99.90;;;;;;5002764;28;20318;-63
2023/02/21 02:34:18;;;;;;;;;;;8.00;99.90;;;;;;5008509;28;21352;-63
2023/02/21 02:36:48;;;;;;;;;;;8.00;99.90;;;;;;5009203;28;19920;-63
2023/02/21 02:39:20;;;;;;;;;;;7.90;99.90;;;;;;5006531;28;20322;-64
2023/02/21 02:41:51;;;;;;;;;;;8.00;99.90;;;;;;5010886;28;19959;-64
2023/02/21 02:44:19;;;;;;;;;;;8.00;99.90;;;;;;5008336;28;19928;-64
2023/02/21 02:46:47;;;;;;;;;;;8.00;99.90;;;;;;5010933;28;19936;-64
2023/02/21 02:49:15;;;;;;;;;;;8.00;99.90;;;;;;5012719;28;20302;-63
2023/02/21 02:51:40;;;;;;;;;;;7.90;99.90;;;;;;5009284;28;19920;-63
2023/02/21 02:54:06;;;;;;;;;;;7.90;99.90;;;;;;5009360;28;19913;-64
2023/02/21 02:56:34;;;;;;;;;;;8.00;99.90;;;;;;5010335;28;19960;-64
2023/02/21 02:59:03;;;;;;;;;;;8.00;99.90;;;;;;5008462;28;19957;-64
2023/02/21 03:01:47;;;;;;;;;;;8.10;99.90;;;;;;5010991;28;19975;-64
2023/02/21 03:04:19;;;;;;;;;;;8.10;99.90;;;;;;5005223;28;19913;-64
2023/02/21 03:06:53;;;;;;;;;;;8.00;99.90;;;;;;5010425;28;20287;-64
2023/02/21 03:09:44;;;;;;;;;;;8.10;99.90;;;;;;5008627;28;20331;-64
2023/02/21 03:12:10;;;;;;;;;;;8.10;99.90;;;;;;4967706;28;20323;-64
2023/02/21 03:15:05;;;;;;;;;;;8.10;99.90;;;;;;4988323;28;19914;-63
2023/02/21 03:17:32;;;;;;;;;;;8.20;99.90;;;;;;4976951;28;19989;-64
2023/02/21 03:19:59;;;;;;;;;;;8.20;99.90;;;;;;4986823;28;19914;-64
2023/02/21 03:22:28;;;;;;;;;;;8.30;99.90;;;;;;4990095;28;19913;-63
2023/02/21 03:24:54;;;;;;;;;;;8.30;99.90;;;;;;4989671;28;19918;-64
2023/02/21 03:27:21;;;;;;;;;;;8.30;99.90;;;;;;4988955;28;19944;-63
2023/02/21 03:29:46;;;;;;;;;;;8.40;99.90;;;;;;4996832;28;19914;-64
2023/02/21 03:34:42;;;;;;;;;;;8.40;99.90;;;;;;4985868;28;20257;-63
2023/02/21 03:37:09;;;;;;;;;;;8.30;99.90;;;;;;4990528;28;19968;-63
2023/02/21 03:39:34;;;;;;;;;;;8.20;99.90;;;;;;4989650;28;19984;-64
2023/02/21 03:42:00;;;;;;;;;;;8.20;99.90;;;;;;4988683;28;19918;-62
2023/02/21 03:44:26;;;;;;;;;;;8.30;99.90;;;;;;4985726;28;19921;-61
2023/02/21 03:46:51;;;;;;;;;;;8.20;99.90;;;;;;4989461;28;19921;-64
2023/02/21 03:49:17;;;;;;;;;;;8.20;99.90;;;;;;4986824;28;20063;-62
2023/02/21 03:51:42;;;;;;;;;;;8.20;99.90;;;;;;4991952;28;19918;-63
2023/02/21 03:54:07;;;;;;;;;;;8.20;99.90;;;;;;4990118;28;19976;-63
2023/02/21 03:56:33;;;;;;;;;;;8.20;99.90;;;;;;4989243;28;19922;-63
2023/02/21 03:58:58;;;;;;;;;;;8.10;99.90;;;;;;4989580;28;19913;-63
2023/02/21 04:01:24;;;;;;;;;;;8.20;99.90;;;;;;4983942;28;19961;-62
2023/02/21 04:03:50;;;;;;;;;;;8.20;99.90;;;;;;4985614;28;19922;-63
2023/02/21 04:06:16;;;;;;;;;;;8.20;99.90;;;;;;4985009;28;19917;-62
2023/02/21 04:08:41;;;;;;;;;;;8.30;99.90;;;;;;4990600;28;20045;-63
2023/02/21 04:11:07;;;;;;;;;;;8.30;99.90;;;;;;4987970;28;19964;-63
2023/02/21 04:13:32;;;;;;;;;;;8.20;99.90;;;;;;4988699;28;19921;-64
2023/02/21 04:15:58;;;;;;;;;;;8.30;99.90;;;;;;4985724;28;19921;-64
2023/02/21 04:18:23;;;;;;;;;;;8.30;99.90;;;;;;4987749;28;19925;-64
2023/02/21 04:20:49;;;;;;;;;;;8.30;99.90;;;;;;4987912;28;19959;-63
2023/02/21 04:23:18;;;;;;;;;;;8.30;99.90;;;;;;4988177;28;20346;-63
2023/02/21 04:25:44;;;;;;;;;;;8.30;99.90;;;;;;4990234;28;20008;-63
2023/02/21 04:28:09;;;;;;;;;;;8.40;99.90;;;;;;4989619;28;20005;-63
2023/02/21 04:30:35;;;;;;;;;;;8.40;99.90;;;;;;4986193;28;20379;-63
2023/02/21 04:33:02;;;;;;;;;;;8.40;99.90;;;;;;4985117;28;20360;-64
2023/02/21 04:35:28;;;;;;;;;;;8.40;99.90;;;;;;4987808;28;19914;-64
2023/02/21 04:37:53;;;;;;;;;;;8.50;99.90;;;;;;4988310;28;19914;-63
2023/02/21 04:40:19;;;;;;;;;;;8.50;99.90;;;;;;4988412;28;20429;-64
2023/02/21 04:42:44;;;;;;;;;;;8.50;99.90;;;;;;4985733;28;19918;-64
2023/02/21 04:45:10;;;;;;;;;;;8.50;99.90;;;;;;4988456;28;20020;-63
2023/02/21 04:47:35;;;;;;;;;;;8.50;99.90;;;;;;4990047;28;19914;-63
2023/02/21 04:50:01;;;;;;;;;;;8.50;99.90;;;;;;4990983;28;20514;-63
2023/02/21 04:52:27;;;;;;;;;;;8.40;99.90;;;;;;4990066;28;20004;-64
2023/02/21 04:54:52;;;;;;;;;;;8.40;99.90;;;;;;4992511;28;20338;-64
2023/02/21 04:57:18;;;;;;;;;;;8.50;99.90;;;;;;4992723;28;20302;-64
2023/02/21 04:59:43;;;;;;;;;;;8.40;99.90;;;;;;4992907;28;19935;-64
2023/02/21 05:02:08;;;;;;;;;;;8.40;99.90;;;;;;4988711;28;19914;-64
2023/02/21 05:04:34;;;;;;;;;;;8.40;99.90;;;;;;4990546;28;19918;-64
2023/02/21 05:07:00;;;;;;;;;;;8.40;99.90;;;;;;4990899;28;19937;-64
2023/02/21 05:09:25;;;;;;;;;;;8.40;99.90;;;;;;4990503;28;19953;-64
2023/02/21 05:11:51;;;;;;;;;;;8.40;99.90;;;;;;4991367;28;19918;-63
2023/02/21 05:14:17;;;;;;;;;;;8.40;99.90;;;;;;4999018;28;20380;-64
2023/02/21 05:16:43;;;;;;;;;;;8.40;99.90;;;;;;4991277;28;19918;-63
2023/02/21 05:19:09;;;;;;;;;;;8.40;99.90;;;;;;4990152;28;20045;-64
2023/02/21 05:21:37;;;;;;;;;;;8.40;99.90;;;;;;4987132;28;19925;-62
2023/02/21 05:24:03;;;;;;;;;;;8.40;99.90;;;;;;4988375;28;19914;-65
2023/02/21 05:26:32;;;;;;;;;;;8.50;99.90;;;;;;4988588;28;20064;-66
2023/02/21 05:28:58;;;;;;;;;;;8.60;99.90;;;;;;4987596;28;20256;-63
2023/02/21 05:31:23;;;;;;;;;;;8.50;99.90;;;;;;4985994;28;19920;-65
2023/02/21 05:33:49;;;;;;;;;;;8.60;99.90;;;;;;4985948;28;19922;-64
2023/02/21 05:36:14;;;;;;;;;;;8.60;99.90;;;;;;4989284;28;19918;-64
2023/02/21 05:38:43;;;;;;;;;;;8.50;99.90;;;;;;4985828;28;20442;-64
2023/02/21 05:41:08;;;;;;;;;;;8.50;99.90;;;;;;4988997;28;19918;-64
2023/02/21 05:43:34;;;;;;;;;;;8.50;99.90;;;;;;4997470;28;19920;-63
2023/02/21 05:45:59;;;;;;;;;;;8.50;99.90;;;;;;4984437;28;19980;-62
2023/02/21 05:48:25;;;;;;;;;;;8.50;99.90;;;;;;4989420;28;20008;-63
2023/02/21 05:50:50;;;;;;;;;;;8.50;99.90;;;;;;4988091;28;19914;-63
2023/02/21 05:53:15;;;;;;;;;;;8.50;99.90;;;;;;4989250;28;19914;-62
2023/02/21 05:55:41;;;;;;;;;;;8.50;99.90;;;;;;4991089;28;19920;-62
2023/02/21 05:58:06;;;;;;;;;;;8.40;99.90;;;;;;4991900;28;20430;-62
2023/02/21 06:00:32;;;;;;;;;;;8.50;99.90;;;;;;4986774;28;20854;-61
2023/02/21 06:02:57;;;;;;;;;;;8.50;99.90;;;;;;4985776;28;19922;-62
2023/02/21 06:05:23;;;;;;;;;;;8.50;99.90;;;;;;4991581;28;19926;-63
2023/02/21 06:07:49;;;;;;;;;;;8.50;99.90;;;;;;4992413;28;19920;-63
2023/02/21 06:10:15;;;;;;;;;;;8.60;99.90;;;;;;4988033;28;20031;-63
2023/02/21 06:12:40;;;;;;;;;;;8.60;99.90;;;;;;4990489;28;19917;-63
2023/02/21 06:15:06;;;;;;;;;;;8.60;99.90;;;;;;4990657;28;19921;-62
2023/02/21 06:17:32;;;;;;;;;;;8.60;99.90;;;;;;4977987;28;19918;-63
2023/02/21 06:19:57;;;;;;;;;;;8.60;99.90;;;;;;4989875;28;19914;-63
2023/02/21 06:22:23;;;;;;;;;;;8.60;99.90;;;;;;4990455;28;19929;-61
2023/02/21 06:24:48;;;;;;;;;;;8.50;99.90;;;;;;4992425;28;19914;-64
2023/02/21 06:27:14;;;;;;;;;;;8.50;99.90;;;;;;4994540;28;19927;-64
2023/02/21 06:29:40;;;;;;;;;;;8.50;99.90;;;;;;4991527;28;19967;-64
2023/02/21 06:32:05;;;;;;;;;;;8.40;99.90;;;;;;4988303;28;19914;-64
2023/02/21 06:34:31;;;;;;;;;;;8.40;99.90;;;;;;4986529;28;19930;-63
2023/02/21 06:36:57;;;;;;;;;;;8.30;99.90;;;;;;4986482;28;19921;-64
2023/02/21 06:39:22;;;;;;;;;;;8.40;99.90;;;;;;4987958;28;19914;-65
2023/02/21 06:41:49;;;;;;;;;;;8.40;99.90;;;;;;4979098;28;19928;-64
2023/02/21 06:44:15;;;;;;;;;;;8.40;99.90;;;;;;4990037;28;19921;-63
2023/02/21 06:46:41;;;;;;;;;;;8.50;99.90;;;;;;4988546;28;19926;-64
2023/02/21 06:49:07;;;;;;;;;;;8.50;99.90;;;;;;4996009;28;19917;-64
2023/02/21 06:51:39;;;;;;;;;;;8.40;99.90;;;;;;4989793;28;20351;-63
2023/02/21 06:54:06;;;;;;;;;;;8.30;99.90;;;;;;4993607;28;19918;-64
2023/02/21 06:56:32;;;;;;;;;;;8.30;99.90;;;;;;4992154;28;19975;-64
2023/02/21 06:58:58;;;;;;;;;;;8.40;99.90;;;;;;4992621;28;19918;-64
2023/02/21 07:01:24;;;;;;;;;;;8.30;99.90;;;;;;4990387;28;19914;-64
2023/02/21 07:03:50;;;;;;;;;;;8.30;99.90;;;;;;4987901;28;19917;-64
2023/02/21 07:06:16;;;;;;;;;;;8.40;99.90;;;;;;4996057;28;19922;-64
2023/02/21 07:08:41;;;;;;;;;;;8.30;99.90;;;;;;4982877;28;19920;-64
2023/02/21 07:11:07;;;;;;;;;;;8.30;99.90;;;;;;4985909;28;19932;-64
2023/02/21 07:13:33;;;;;;;;;;;8.30;99.90;;;;;;4990466;28;20005;-64
2023/02/21 07:15:58;;;;;;;;;;;8.30;99.90;;;;;;4994393;28;19933;-64
2023/02/21 07:18:24;;;;;;;;;;;8.40;99.90;;;;;;5006068;28;20295;-64
2023/02/21 07:20:49;;;;;;;;;;;8.30;99.90;;;;;;4995006;28;20354;-64
2023/02/21 07:23:15;;;;;;;;;;;8.30;99.90;;;;;;4990158;28;20452;-64
2023/02/21 07:25:40;;;;;;;;;;;8.20;99.90;;;;;;4989497;28;19920;-64
2023/02/21 07:28:06;;;;;;;;;;;8.30;99.90;;;;;;4997114;28;20025;-64
2023/02/21 07:30:31;;;;;;;;;;;8.30;99.90;;;;;;4994075;28;19914;-63
2023/02/21 07:32:57;;;;;;;;;;;8.30;99.90;;;;;;4995460;28;19960;-64
2023/02/21 07:35:23;;;;;;;;;;;8.20;99.90;;;;;;4996026;28;20291;-66
2023/02/21 07:37:48;;;;;;;;;;;8.30;99.90;;;;;;4997656;28;20505;-63
2023/02/21 07:40:14;;;;;;;;;;;8.20;99.90;;;;;;4991723;28;19928;-64
2023/02/21 07:42:42;;;;;;;;;;;8.20;99.90;;;;;;4977878;28;19968;-64
2023/02/21 07:45:08;;;;;;;;;;;8.20;99.90;;;;;;4990451;28;19914;-64
2023/02/21 07:47:34;;;;;;;;;;;8.30;99.90;;;;;;5006705;28;20004;-64
2023/02/21 07:49:59;;;;;;;;;;;8.30;99.90;;;;;;5001632;28;19963;-64
2023/02/21 07:52:24;;;;;;;;;;;8.30;99.90;;;;;;5002196;28;19960;-64
2023/02/21 07:54:50;;;;;;;;;;;8.40;99.90;;;;;;4990435;28;19914;-64
2023/02/21 07:57:16;;;;;;;;;;;8.40;99.90;;;;;;4997082;28;20367;-64
2023/02/21 07:59:41;;;;;;;;;;;8.50;99.90;;;;;;4992694;28;19914;-64
2023/02/21 08:02:08;;;;;;;;;;;8.50;99.90;;;;;;4983307;28;21922;-64
2023/02/21 08:04:33;;;;;;;;;;;8.60;99.90;;;;;;4980337;28;19914;-63
2023/02/21 08:07:00;;;;;;;;;;;8.60;99.90;;;;;;4982984;28;20399;-64
2023/02/21 08:09:25;;;;;;;;;;;8.60;99.90;;;;;;4990820;28;20452;-65
2023/02/21 08:11:50;;;;;;;;;;;8.60;99.90;;;;;;4987310;28;19917;-65
2023/02/21 08:14:16;;;;;;;;;;;8.60;99.90;;;;;;4987117;28;20346;-64
2023/02/21 08:16:41;;;;;;;;;;;8.60;99.90;;;;;;4985602;28;19918;-64
2023/02/21 08:19:08;;;;;;;;;;;8.60;99.90;;;;;;4988619;28;19918;-64
2023/02/21 08:21:34;;;;;;;;;;;8.60;99.90;;;;;;4991784;28;19914;-65
2023/02/21 08:23:59;;;;;;;;;;;8.60;99.90;;;;;;4987482;28;19925;-63
2023/02/21 08:26:25;;;;;;;;;;;8.60;99.90;;;;;;4990533;28;19918;-64
2023/02/21 08:28:50;;;;;;;;;;;8.60;99.90;;;;;;4989937;28;19921;-64
2023/02/21 08:31:16;;;;;;;;;;;8.60;99.90;;;;;;4984455;28;20463;-64
2023/02/21 08:33:41;;;;;;;;;;;8.60;99.90;;;;;;4987317;28;19950;-64
2023/02/21 08:36:06;;;;;;;;;;;8.70;99.90;;;;;;4987696;28;19996;-65
2023/02/21 08:38:32;;;;;;;;;;;8.70;99.90;;;;;;4987397;28;19914;-65
2023/02/21 08:40:57;;;;;;;;;;;8.70;99.90;;;;;;4984811;28;19928;-63
2023/02/21 08:43:23;;;;;;;;;;;8.70;99.90;;;;;;4988646;28;19925;-64
2023/02/21 08:45:49;;;;;;;;;;;8.70;99.90;;;;;;4984801;28;20004;-64
2023/02/21 08:48:15;;;;;;;;;;;8.80;99.90;;;;;;4984884;28;20152;-64
2023/02/21 08:50:40;;;;;;;;;;;8.80;99.90;;;;;;4987685;28;19914;-63
2023/02/21 08:53:05;;;;;;;;;;;8.80;99.90;;;;;;4984867;28;19917;-63
2023/02/21 08:55:31;;;;;;;;;;;8.70;99.90;;;;;;4987820;28;20382;-64
2023/02/21 08:57:57;;;;;;;;;;;8.70;99.90;;;;;;4988113;28;19945;-64
2023/02/21 09:00:23;;;;;;;;;;;8.70;99.90;;;;;;4987077;28;19956;-65
2023/02/21 09:02:49;;;;;;;;;;;8.70;99.90;;;;;;4987713;28;20380;-64
2023/02/21 09:05:17;;;;;;;;;;;8.60;99.90;;;;;;4992025;28;19918;-64
2023/02/21 09:07:43;;;;;;;;;;;8.70;99.90;;;;;;4982228;28;19944;-65
2023/02/21 09:10:10;;;;;;;;;;;8.70;99.90;;;;;;4989654;28;20396;-65
2023/02/21 09:12:36;;;;;;;;;;;8.70;99.90;;;;;;5003952;28;20312;-65
2023/02/21 09:15:02;;;;;;;;;;;8.70;99.90;;;;;;5024204;23;19921;-58
2023/02/21 09:17:27;;;;;;;;;;;8.70;99.90;;;;;;5000001;28;20426;-59
2023/02/21 09:19:53;;;;;;;;;;;8.70;99.90;;;;;;4998213;28;20361;-59
2023/02/21 09:22:18;;;;;;;;;;;8.70;99.90;;;;;;4998317;28;19925;-60
2023/02/21 09:24:44;;;;;;;;;;;8.70;99.90;;;;;;5004474;28;19925;-58
2023/02/21 09:27:09;;;;;;;;;;;8.80;99.90;;;;;;4985742;28;20057;-62
2023/02/21 09:29:35;;;;;;;;;;;8.80;99.90;;;;;;4986972;28;19913;-62
2023/02/21 09:32:01;;;;;;;;;;;8.90;99.90;;;;;;4991239;28;19922;-61
2023/02/21 09:34:27;;;;;;;;;;;8.90;99.90;;;;;;4990623;28;19940;-62
2023/02/21 09:36:53;;;;;;;;;;;8.90;99.90;;;;;;4982902;28;19925;-59
2023/02/21 09:39:19;;;;;;;;;;;8.90;99.90;;;;;;4986278;28;19940;-60
2023/02/21 09:41:46;;;;;;;;;;;8.90;99.90;;;;;;4988062;28;20004;-60
2023/02/21 09:44:14;;;;;;;;;;;8.90;99.90;;;;;;4983682;28;20012;-60
2023/02/21 09:46:47;;;;;;;;;;;8.90;99.90;;;;;;4989632;28;19917;-59
2023/02/21 09:49:23;;;;;;;;;;;8.90;99.90;;;;;;4982462;28;19929;-60
2023/02/21 09:51:49;;;;;;;;;;;9.00;99.90;;;;;;4987344;28;20303;-61
2023/02/21 09:54:26;;;;;;;;;;;9.00;99.90;;;;;;4986507;28;19940;-61
2023/02/21 09:56:53;;;;;;;;;;;9.00;99.90;;;;;;4983920;28;20406;-60
2023/02/21 09:59:18;;;;;;;;;;;9.00;99.90;;;;;;4991589;28;19968;-61
2023/02/21 10:02:02;;;;;;;;;;;8.80;99.90;;;;;;4985054;28;19917;-58
2023/02/21 10:04:38;;;;;;;;;;;9.00;99.90;;;;;;4986230;28;19961;-58
2023/02/21 10:07:13;;;;;;;;;;;9.00;99.90;;;;;;4982225;28;20352;-60
2023/02/21 10:09:45;;;;;;;;;;;9.10;99.90;;;;;;4986681;28;19920;-60
2023/02/21 10:12:24;;;;;;;;;;;9.10;99.90;;;;;;4994134;28;19953;-60
2023/02/21 10:14:52;;;;;;;;;;;9.20;99.90;;;;;;4990313;28;19944;-60
2023/02/21 10:17:22;;;;;;;;;;;9.30;99.90;;;;;;4989982;28;19918;-61
2023/02/21 10:19:49;;;;;;;;;;;9.30;99.90;;;;;;4984047;28;19914;-60
2023/02/21 10:22:23;;;;;;;;;;;9.40;99.90;;;;;;4993414;28;19964;-61
2023/02/21 10:24:49;;;;;;;;;;;9.50;99.90;;;;;;4992541;28;19913;-61
2023/02/21 10:27:22;;;;;;;;;;;9.50;99.90;;;;;;4987014;28;20371;-61
2023/02/21 10:29:54;;;;;;;;;;;9.50;99.90;;;;;;4989179;28;19913;-62
2023/02/21 10:32:20;;;;;;;;;;;9.60;99.90;;;;;;4990954;28;19922;-56
2023/02/21 10:34:46;;;;;;;;;;;9.50;99.90;;;;;;4989949;28;19981;-59
2023/02/21 10:37:12;;;;;;;;;;;9.50;99.90;;;;;;4989186;28;20291;-62
2023/02/21 10:39:46;;;;;;;;;;;9.40;99.90;;;;;;4989758;28;19922;-61
2023/02/21 10:42:17;;;;;;;;;;;9.40;99.90;;;;;;4986335;28;19996;-61
2023/02/21 10:44:43;;;;;;;;;;;9.40;99.90;;;;;;4979316;28;19918;-61
2023/02/21 10:47:21;;;;;;;;;;;9.30;99.90;;;;;;4994013;28;19917;-60
2023/02/21 10:50:05;;;;;;;;;;;9.40;99.90;;;;;;4990581;28;19921;-60
2023/02/21 10:52:45;;;;;;;;;;;9.50;99.90;;;;;;4984013;28;19921;-59
2023/02/21 10:55:18;;;;;;;;;;;9.40;99.90;;;;;;4984688;28;19925;-59
2023/02/21 10:57:44;;;;;;;;;;;9.40;99.90;;;;;;4989233;28;21260;-60
2023/02/21 11:00:19;;;;;;;;;;;9.50;99.90;;;;;;4990371;28;19926;-61
2023/02/21 11:02:49;;;;;;;;;;;9.60;99.90;;;;;;4987742;28;19918;-60
2023/02/21 11:05:16;;;;;;;;;;;9.70;99.90;;;;;;4987953;28;20392;-61
2023/02/21 11:07:54;;;;;;;;;;;9.70;99.90;;;;;;4981626;28;19958;-61
2023/02/21 11:10:26;;;;;;;;;;;9.70;99.90;;;;;;4983288;28;20417;-61
2023/02/21 11:13:13;;;;;;;;;;;9.70;99.90;;;;;;4986127;28;19925;-61
2023/02/21 11:15:38;;;;;;;;;;;9.70;99.90;;;;;;4998443;28;19917;-60
2023/02/21 11:18:17;;;;;;;;;;;9.70;99.90;;;;;;5007632;28;19917;-61
2023/02/21 11:20:44;;;;;;;;;;;9.70;99.90;;;;;;5003600;28;19928;-61
2023/02/21 11:23:17;;;;;;;;;;;9.80;99.90;;;;;;5008485;28;20403;-62
2023/02/21 11:25:42;;;;;;;;;;;9.80;99.90;;;;;;5005376;28;19929;-61
2023/02/21 11:28:08;;;;;;;;;;;9.80;99.90;;;;;;5009548;28;20311;-61
2023/02/21 11:30:36;;;;;;;;;;;10.00;99.90;;;;;;5006896;28;19925;-61
2023/02/21 11:33:03;;;;;;;;;;;10.10;99.90;;;;;;5013877;28;19983;-58
2023/02/21 11:35:31;;;;;;;;;;;10.10;99.90;;;;;;5006670;28;19952;-60
2023/02/21 11:38:04;;;;;;;;;;;10.10;99.90;;;;;;5011234;28;19914;-61
2023/02/21 11:40:49;;;;;;;;;;;10.10;99.90;;;;;;5004899;28;20396;-60
2023/02/21 11:43:23;;;;;;;;;;;10.10;99.90;;;;;;5005273;28;19917;-61
2023/02/21 11:45:58;;;;;;;;;;;10.20;99.90;;;;;;5011721;28;20299;-59
2023/02/21 11:48:30;;;;;;;;;;;10.30;99.90;;;;;;5006569;28;20502;-61
2023/02/21 11:50:56;;;;;;;;;;;10.40;99.90;;;;;;5005825;28;19922;-60
2023/02/21 11:53:38;;;;;;;;;;;10.40;99.90;;;;;;5007116;28;20044;-62
2023/02/21 11:56:18;;;;;;;;;;;10.30;99.90;;;;;;5002621;28;19918;-56
2023/02/21 11:59:22;;;;;;;;;;;10.40;99.90;;;;;;5008168;28;19921;-62
2023/02/21 12:01:47;;;;;;;;;;;10.50;99.90;;;;;;4950955;29;20444;-62
2023/02/21 12:04:13;;;;;;;;;;;10.60;99.90;;;;;;4950154;28;20033;-62
2023/02/21 12:06:51;;;;;;;;;;;10.50;99.90;;;;;;4977193;28;19922;-61
2023/02/21 12:09:25;;;;;;;;;;;10.60;99.90;;;;;;5010311;28;19920;-60
2023/02/21 12:11:59;;;;;;;;;;;10.80;99.90;;;;;;5011621;28;19914;-60
2023/02/21 12:14:32;;;;;;;;;;;10.90;99.90;;;;;;5010443;28;20389;-62
2023/02/21 12:17:23;;;;;;;;;;;11.10;99.90;;;;;;5008374;28;19917;-62
2023/02/21 12:19:48;;;;;;;;;;;11.30;99.90;;;;;;4980599;28;19920;-59
2023/02/21 12:22:27;;;;;;;;;;;11.30;99.90;;;;;;5011241;28;20007;-62
2023/02/21 12:25:05;;;;;;;;;;;11.20;99.90;;;;;;5008924;28;19960;-60
2023/02/21 12:27:43;;;;;;;;;;;11.10;99.90;;;;;;5011103;28;20380;-62
2023/02/21 12:30:18;;;;;;;;;;;11.50;99.90;;;;;;5008352;28;19975;-62
2023/02/21 12:32:49;;;;;;;;;;;12.20;99.90;;;;;;5003834;28;20427;-63
2023/02/21 12:35:36;;;;;;;;;;;12.70;99.90;;;;;;5008763;28;19914;-61
2023/02/21 12:38:20;;;;;;;;;;;13.00;99.90;;;;;;5011285;28;19922;-64
2023/02/21 12:40:46;;;;;;;;;;;13.10;99.90;;;;;;5009671;28;20001;-62
2023/02/21 12:43:26;;;;;;;;;;;13.10;99.90;;;;;;5009722;28;19957;-63
2023/02/21 12:46:04;;;;;;;;;;;13.30;99.90;;;;;;5009451;28;19914;-63
2023/02/21 12:48:35;;;;;;;;;;;13.30;99.90;;;;;;5008300;28;20213;-63
2023/02/21 12:51:03;;;;;;;;;;;13.40;99.90;;;;;;5006833;28;19948;-63
2023/02/21 12:53:31;;;;;;;;;;;13.50;99.90;;;;;;5015779;28;19913;-59
2023/02/21 12:55:59;;;;;;;;;;;13.60;99.90;;;;;;5008247;28;19917;-61
2023/02/21 12:58:51;;;;;;;;;;;13.50;99.90;;;;;;5005583;28;19981;-63
2023/02/21 13:01:29;;;;;;;;;;;13.40;99.90;;;;;;5007333;28;20444;-63
2023/02/21 13:04:14;;;;;;;;;;;13.50;99.90;;;;;;5010301;28;20256;-64
2023/02/21 13:06:46;;;;;;;;;;;13.60;99.90;;;;;;5013003;28;19949;-64
2023/02/21 13:09:19;;;;;;;;;;;13.30;99.90;;;;;;5011156;28;20350;-64
2023/02/21 13:11:47;;;;;;;;;;;13.70;99.90;;;;;;5010200;28;20188;-62
2023/02/21 13:14:19;;;;;;;;;;;14.00;99.90;;;;;;5013614;28;19917;-64
2023/02/21 13:16:44;;;;;;;;;;;14.10;99.90;;;;;;5007683;28;19921;-62
2023/02/21 13:19:11;;;;;;;;;;;14.20;99.90;;;;;;5011824;28;19921;-63
2023/02/21 13:21:36;;;;;;;;;;;14.40;99.90;;;;;;5014775;28;19992;-62
2023/02/21 13:24:22;;;;;;;;;;;14.20;99.90;;;;;;5013399;28;20004;-63
2023/02/21 13:26:59;;;;;;;;;;;14.30;99.90;;;;;;5012562;28;20059;-63
2023/02/21 13:29:29;;;;;;;;;;;14.40;99.90;;;;;;5013053;28;20084;-62
2023/02/21 13:31:59;;;;;;;;;;;14.60;99.90;;;;;;5011477;28;19914;-62
2023/02/21 13:34:27;;;;;;;;;;;14.60;99.90;;;;;;5010665;28;19921;-63
2023/02/21 13:36:52;;;;;;;;;;;14.50;99.90;;;;;;5012458;28;19914;-63
2023/02/21 13:39:20;;;;;;;;;;;14.70;99.90;;;;;;5013322;28;19928;-63
2023/02/21 13:41:48;;;;;;;;;;;14.70;99.90;;;;;;5011765;28;19920;-63
2023/02/21 13:44:22;;;;;;;;;;;14.50;99.90;;;;;;5010142;28;19921;-62
2023/02/21 13:46:50;;;;;;;;;;;14.20;99.90;;;;;;5009971;28;19917;-62
2023/02/21 13:49:35;;;;;;;;;;;14.00;99.90;;;;;;5011415;28;19914;-61
2023/02/21 13:52:13;;;;;;;;;;;14.10;99.90;;;;;;4994045;28;19917;-60
2023/02/21 13:54:59;;;;;;;;;;;14.10;99.90;;;;;;5007963;28;20252;-62
2023/02/21 13:57:31;;;;;;;;;;;14.30;99.90;;;;;;5013765;28;19917;-63
2023/02/21 13:59:56;;;;;;;;;;;14.50;99.90;;;;;;5011249;28;19914;-61
2023/02/21 14:02:28;;;;;;;;;;;14.10;99.90;;;;;;5011973;28;20429;-61
2023/02/21 14:04:56;;;;;;;;;;;14.30;99.90;;;;;;5011595;28;20223;-63
2023/02/21 14:07:39;;;;;;;;;;;14.20;99.90;;;;;;5013677;28;20383;-63
2023/02/21 14:10:13;;;;;;;;;;;14.40;99.90;;;;;;5013573;28;19917;-63
2023/02/21 14:12:42;;;;;;;;;;;14.50;99.90;;;;;;5011716;28;19915;-62
2023/02/21 14:15:07;;;;;;;;;;;14.60;99.90;;;;;;5012333;28;19920;-61
2023/02/21 14:17:35;;;;;;;;;;;14.50;99.90;;;;;;5010196;28;19925;-61
2023/02/21 14:20:01;;;;;;;;;;;14.30;99.90;;;;;;5008764;28;20052;-62
2023/02/21 14:22:28;;;;;;;;;;;14.20;99.90;;;;;;5011767;28;19992;-61
2023/02/21 14:25:12;;;;;;;;;;;14.00;99.90;;;;;;5011039;28;19913;-63
2023/02/21 14:27:37;;;;;;;;;;;13.90;99.90;;;;;;5008091;28;19918;-63
2023/02/21 14:30:09;;;;;;;;;;;13.70;99.90;;;;;;5013013;28;19909;-62
2023/02/21 14:32:42;;;;;;;;;;;13.50;99.90;;;;;;5006003;28;20129;-61
2023/02/21 14:35:23;;;;;;;;;;;13.40;99.90;;;;;;5010989;28;20028;-63
2023/02/21 14:37:59;;;;;;;;;;;13.30;99.90;;;;;;5011312;28;19913;-63
2023/02/21 14:40:31;;;;;;;;;;;13.30;99.90;;;;;;5009550;28;19972;-62
2023/02/21 14:43:15;;;;;;;;;;;13.30;99.90;;;;;;5009014;28;20056;-62
2023/02/21 14:45:59;;;;;;;;;;;13.20;99.90;;;;;;5008600;28;20380;-61
2023/02/21 14:48:31;;;;;;;;;;;13.10;99.90;;;;;;5001789;28;19922;-57
2023/02/21 14:51:09;;;;;;;;;;;13.00;99.90;;;;;;5001088;28;19921;-60
2023/02/21 14:53:46;;;;;;;;;;;12.80;99.90;;;;;;4996940;28;19921;-59
2023/02/21 14:56:21;;;;;;;;;;;12.80;99.90;;;;;;5002613;28;19936;-62
2023/02/21 14:59:09;;;;;;;;;;;12.70;99.90;;;;;;5001376;28;19913;-56
2023/02/21 15:01:53;;;;;;;;;;;12.70;99.90;;;;;;5006012;28;19919;-59
2023/02/21 15:04:31;;;;;;;;;;;12.60;99.90;;;;;;5003248;28;20000;-62
2023/02/21 15:06:56;;;;;;;;;;;12.60;99.90;;;;;;5007078;28;19952;-61
2023/02/21 15:09:22;;;;;;;;;;;12.40;99.90;;;;;;5002253;28;20380;-60
2023/02/21 15:11:47;;;;;;;;;;;12.40;99.90;;;;;;5006671;28;19914;-61
2023/02/21 15:14:21;;;;;;;;;;;12.50;99.90;;;;;;5011832;28;20018;-61
2023/02/21 15:16:48;;;;;;;;;;;12.50;99.90;;;;;;5021383;22;20891;-64
2023/02/21 15:19:31;;;;;;;;;;;12.50;99.90;;;;;;4990011;28;19922;-65
2023/02/21 15:22:05;;;;;;;;;;;12.40;99.90;;;;;;4981861;28;19918;-65
2023/02/21 15:24:31;;;;;;;;;;;12.30;99.90;;;;;;4989416;28;19920;-65
2023/02/21 15:27:10;;;;;;;;;;;12.20;99.90;;;;;;5004739;28;19918;-65
2023/02/21 15:29:36;;;;;;;;;;;12.10;99.90;;;;;;5008848;28;19929;-64
2023/02/21 15:32:02;;;;;;;;;;;12.10;99.90;;;;;;5011651;28;19910;-63
2023/02/21 15:34:32;;;;;;;;;;;12.00;99.90;;;;;;5014707;28;19913;-64
2023/02/21 15:37:00;;;;;;;;;;;11.90;99.90;;;;;;5014160;28;19932;-63
2023/02/21 15:39:28;;;;;;;;;;;11.90;99.90;;;;;;5015532;28;20417;-65
2023/02/21 15:41:58;;;;;;;;;;;11.90;99.90;;;;;;5015341;28;19916;-65
2023/02/21 15:44:29;;;;;;;;;;;11.80;99.90;;;;;;5003535;28;19936;-66
2023/02/21 15:47:09;;;;;;;;;;;11.80;99.90;;;;;;5015451;28;19918;-65
2023/02/21 15:49:40;;;;;;;;;;;11.80;99.90;;;;;;5009474;28;19909;-65
2023/02/21 15:52:06;;;;;;;;;;;11.80;99.90;;;;;;5010317;28;19944;-66
2023/02/21 15:54:32;;;;;;;;;;;11.80;99.90;;;;;;5009648;28;19914;-65
2023/02/21 15:57:02;;;;;;;;;;;11.70;99.90;;;;;;5010173;28;19916;-66
2023/02/21 15:59:28;;;;;;;;;;;11.60;99.90;;;;;;5006728;28;20276;-66
2023/02/21 16:02:12;;;;;;;;;;;11.50;99.90;;;;;;5009338;28;19917;-60
2023/02/21 16:04:42;;;;;;;;;;;11.40;99.90;;;;;;5010884;28;20290;-66
2023/02/21 16:07:26;;;;;;;;;;;11.40;99.90;;;;;;5007816;28;19921;-66
2023/02/21 16:09:58;;;;;;;;;;;11.40;99.90;;;;;;5012430;28;21412;-65
2023/02/21 16:12:50;;;;;;;;;;;11.20;99.90;;;;;;5009533;28;20253;-65
2023/02/21 16:15:19;;;;;;;;;;;11.10;99.90;;;;;;5006167;28;19944;-65
2023/02/21 16:17:45;;;;;;;;;;;11.00;99.90;;;;;;5007596;28;19961;-65
2023/02/21 16:20:12;;;;;;;;;;;10.90;99.90;;;;;;5010483;28;19913;-65
2023/02/21 16:22:38;;;;;;;;;;;10.90;99.90;;;;;;5008578;28;19913;-66
2023/02/21 16:25:12;;;;;;;;;;;10.80;99.90;;;;;;5010495;28;20272;-65
2023/02/21 16:27:39;;;;;;;;;;;10.70;99.90;;;;;;4999708;28;19917;-66
2023/02/21 16:30:05;;;;;;;;;;;10.60;99.90;;;;;;5003948;28;19967;-65
2023/02/21 16:32:31;;;;;;;;;;;10.50;99.90;;;;;;5009844;28;19913;-65
2023/02/21 16:34:57;;;;;;;;;;;10.50;99.90;;;;;;5005906;28;20437;-66
2023/02/21 16:37:22;;;;;;;;;;;10.40;99.90;;;;;;5008320;28;20189;-66
2023/02/21 16:39:48;;;;;;;;;;;10.30;99.90;;;;;;4986470;28;20354;-66
2023/02/21 16:42:14;;;;;;;;;;;10.30;99.90;;;;;;5007736;28;20017;-66
2023/02/21 16:44:41;;;;;;;;;;;10.20;99.90;;;;;;4997043;28;20283;-66
2023/02/21 16:47:07;;;;;;;;;;;10.20;99.90;;;;;;5002493;28;19956;-65
2023/02/21 16:49:33;;;;;;;;;;;10.10;99.90;;;;;;4994205;28;20556;-64
2023/02/21 16:51:59;;;;;;;;;;;10.00;99.90;;;;;;5008335;28;20298;-65
2023/02/21 16:54:24;;;;;;;;;;;9.90;99.90;;;;;;5012115;28;19917;-65
2023/02/21 16:56:50;;;;;;;;;;;9.90;99.90;;;;;;5005794;28;19925;-64